sensor_id;sensor_type;location;lat;lon;timestamp;P1;durP1;ratioP1;P2;durP2;ratioP2
17812;SDS011;9030;50.792;8.320;2023-05-10T00:00:12;1.15;;;0.50;;
17812;SDS011;9030;50.792;8.320;2023-05-10T00:02:47;4.85;;;1.05;;
17812;SDS011;9030;50.792;8.320;2023-05-10T00:05:17;0.22;;;0.20;;
17812;SDS011;9030;50.792;8.320;2023-05-10T00:07:46;1.75;;;0.30;;
17812;SDS011;9030;50.792;8.320;2023-05-10T00:10:48;0.30;;;0.20;;
17812;SDS011;9030;50.792;8.320;2023-05-10T00:13:26;0.50;;;0.25;;
17812;SDS011;9030;50.792;8.320;2023-05-10T00:16:17;0.22;;;0.20;;
17812;SDS011;9030;50.792;8.320;2023-05-10T00:18:44;1.08;;;0.22;;
17812;SDS011;9030;50.792;8.320;2023-05-10T00:21:12;0.40;;;0.25;;
17812;SDS011;9030;50.792;8.320;2023-05-10T00:23:50;0.47;;;0.30;;
17812;SDS011;9030;50.792;8.320;2023-05-10T00:29:48;0.65;;;0.20;;
17812;SDS011;9030;50.792;8.320;2023-05-10T00:32:35;0.73;;;0.10;;
17812;SDS011;9030;50.792;8.320;2023-05-10T00:35:03;0.20;;;0.20;;
17812;SDS011;9030;50.792;8.320;2023-05-10T00:37:44;3.47;;;0.28;;
17812;SDS011;9030;50.792;8.320;2023-05-10T00:40:16;0.38;;;0.32;;
17812;SDS011;9030;50.792;8.320;2023-05-10T00:42:51;0.68;;;0.40;;
17812;SDS011;9030;50.792;8.320;2023-05-10T00:45:24;0.28;;;0.28;;
17812;SDS011;9030;50.792;8.320;2023-05-10T00:47:56;0.68;;;0.40;;
17812;SDS011;9030;50.792;8.320;2023-05-10T00:50:35;2.15;;;0.28;;
17812;SDS011;9030;50.792;8.320;2023-05-10T00:53:07;0.40;;;0.40;;
17812;SDS011;9030;50.792;8.320;2023-05-10T00:55:35;0.57;;;0.20;;
17812;SDS011;9030;50.792;8.320;2023-05-10T00:58:19;1.67;;;0.47;;
17812;SDS011;9030;50.792;8.320;2023-05-10T01:01:09;1.17;;;0.40;;
17812;SDS011;9030;50.792;8.320;2023-05-10T01:03:55;2.40;;;0.38;;
17812;SDS011;9030;50.792;8.320;2023-05-10T01:06:35;1.65;;;0.50;;
17812;SDS011;9030;50.792;8.320;2023-05-10T01:09:04;2.53;;;0.50;;
17812;SDS011;9030;50.792;8.320;2023-05-10T01:12:04;1.52;;;0.55;;
17812;SDS011;9030;50.792;8.320;2023-05-10T01:14:47;1.45;;;0.57;;
17812;SDS011;9030;50.792;8.320;2023-05-10T01:17:25;3.47;;;0.57;;
17812;SDS011;9030;50.792;8.320;2023-05-10T01:29:46;0.52;;;0.52;;
17812;SDS011;9030;50.792;8.320;2023-05-10T01:33:12;1.33;;;1.13;;
17812;SDS011;9030;50.792;8.320;2023-05-10T01:35:55;0.73;;;0.65;;
17812;SDS011;9030;50.792;8.320;2023-05-10T01:38:32;0.77;;;0.73;;
17812;SDS011;9030;50.792;8.320;2023-05-10T01:41:19;1.23;;;0.70;;
17812;SDS011;9030;50.792;8.320;2023-05-10T01:47:29;0.60;;;0.60;;
17812;SDS011;9030;50.792;8.320;2023-05-10T01:53:00;1.92;;;0.70;;
17812;SDS011;9030;50.792;8.320;2023-05-10T02:04:52;3.47;;;1.13;;
17812;SDS011;9030;50.792;8.320;2023-05-10T02:07:50;5.82;;;1.30;;
17812;SDS011;9030;50.792;8.320;2023-05-10T02:10:45;1.70;;;1.35;;
17812;SDS011;9030;50.792;8.320;2023-05-10T02:13:28;2.10;;;0.95;;
17812;SDS011;9030;50.792;8.320;2023-05-10T02:16:12;1.25;;;0.98;;
17812;SDS011;9030;50.792;8.320;2023-05-10T02:18:53;2.08;;;0.77;;
17812;SDS011;9030;50.792;8.320;2023-05-10T02:21:36;1.65;;;0.80;;
17812;SDS011;9030;50.792;8.320;2023-05-10T02:27:48;1.67;;;0.38;;
17812;SDS011;9030;50.792;8.320;2023-05-10T02:30:35;1.65;;;0.55;;
17812;SDS011;9030;50.792;8.320;2023-05-10T02:33:17;1.08;;;0.50;;
17812;SDS011;9030;50.792;8.320;2023-05-10T02:36:16;2.20;;;0.57;;
17812;SDS011;9030;50.792;8.320;2023-05-10T02:39:14;0.70;;;0.70;;
17812;SDS011;9030;50.792;8.320;2023-05-10T02:44:50;0.57;;;0.57;;
17812;SDS011;9030;50.792;8.320;2023-05-10T02:47:49;0.73;;;0.70;;
17812;SDS011;9030;50.792;8.320;2023-05-10T02:50:43;0.57;;;0.55;;
17812;SDS011;9030;50.792;8.320;2023-05-10T02:53:46;0.85;;;0.70;;
17812;SDS011;9030;50.792;8.320;2023-05-10T02:56:23;3.05;;;0.82;;
17812;SDS011;9030;50.792;8.320;2023-05-10T02:59:09;2.20;;;1.35;;
17812;SDS011;9030;50.792;8.320;2023-05-10T03:01:41;1.75;;;1.25;;
17812;SDS011;9030;50.792;8.320;2023-05-10T03:04:32;1.25;;;1.13;;
17812;SDS011;9030;50.792;8.320;2023-05-10T03:10:58;5.18;;;1.67;;
17812;SDS011;9030;50.792;8.320;2023-05-10T03:14:02;4.07;;;1.42;;
17812;SDS011;9030;50.792;8.320;2023-05-10T03:17:05;4.32;;;1.80;;
17812;SDS011;9030;50.792;8.320;2023-05-10T03:19:56;3.92;;;2.70;;
17812;SDS011;9030;50.792;8.320;2023-05-10T03:22:46;4.90;;;1.88;;
17812;SDS011;9030;50.792;8.320;2023-05-10T03:25:21;3.38;;;1.77;;
17812;SDS011;9030;50.792;8.320;2023-05-10T03:28:08;4.80;;;2.85;;
17812;SDS011;9030;50.792;8.320;2023-05-10T03:33:54;4.82;;;3.25;;
17812;SDS011;9030;50.792;8.320;2023-05-10T03:36:33;4.40;;;3.42;;
17812;SDS011;9030;50.792;8.320;2023-05-10T03:39:21;4.18;;;3.15;;
17812;SDS011;9030;50.792;8.320;2023-05-10T03:41:58;6.30;;;3.58;;
17812;SDS011;9030;50.792;8.320;2023-05-10T03:44:29;5.20;;;3.60;;
17812;SDS011;9030;50.792;8.320;2023-05-10T03:47:11;3.45;;;2.72;;
17812;SDS011;9030;50.792;8.320;2023-05-10T03:49:43;5.55;;;3.10;;
17812;SDS011;9030;50.792;8.320;2023-05-10T03:52:26;4.85;;;3.10;;
17812;SDS011;9030;50.792;8.320;2023-05-10T03:55:06;4.80;;;3.53;;
17812;SDS011;9030;50.792;8.320;2023-05-10T03:57:47;3.25;;;2.60;;
17812;SDS011;9030;50.792;8.320;2023-05-10T04:00:32;6.45;;;4.60;;
17812;SDS011;9030;50.792;8.320;2023-05-10T04:03:26;5.85;;;4.15;;
17812;SDS011;9030;50.792;8.320;2023-05-10T04:09:30;5.50;;;3.72;;
17812;SDS011;9030;50.792;8.320;2023-05-10T04:12:03;7.35;;;5.57;;
17812;SDS011;9030;50.792;8.320;2023-05-10T04:14:58;10.57;;;5.70;;
17812;SDS011;9030;50.792;8.320;2023-05-10T04:17:51;9.77;;;6.18;;
17812;SDS011;9030;50.792;8.320;2023-05-10T04:20:37;9.13;;;6.60;;
17812;SDS011;9030;50.792;8.320;2023-05-10T04:29:51;10.68;;;8.25;;
17812;SDS011;9030;50.792;8.320;2023-05-10T04:32:30;11.60;;;9.45;;
17812;SDS011;9030;50.792;8.320;2023-05-10T04:35:23;14.50;;;11.35;;
17812;SDS011;9030;50.792;8.320;2023-05-10T04:38:32;12.60;;;10.40;;
17812;SDS011;9030;50.792;8.320;2023-05-10T04:44:07;15.32;;;11.93;;
17812;SDS011;9030;50.792;8.320;2023-05-10T04:47:01;15.45;;;11.40;;
17812;SDS011;9030;50.792;8.320;2023-05-10T04:53:41;15.02;;;13.43;;
17812;SDS011;9030;50.792;8.320;2023-05-10T04:56:30;15.38;;;12.85;;
17812;SDS011;9030;50.792;8.320;2023-05-10T04:59:06;12.05;;;9.98;;
17812;SDS011;9030;50.792;8.320;2023-05-10T05:01:52;12.00;;;9.27;;
17812;SDS011;9030;50.792;8.320;2023-05-10T05:04:55;14.05;;;9.80;;
17812;SDS011;9030;50.792;8.320;2023-05-10T05:07:56;13.32;;;9.43;;
17812;SDS011;9030;50.792;8.320;2023-05-10T05:10:43;13.23;;;8.38;;
17812;SDS011;9030;50.792;8.320;2023-05-10T05:13:26;11.35;;;7.97;;
17812;SDS011;9030;50.792;8.320;2023-05-10T05:19:04;8.07;;;5.45;;
17812;SDS011;9030;50.792;8.320;2023-05-10T05:21:32;7.55;;;5.50;;
17812;SDS011;9030;50.792;8.320;2023-05-10T05:24:05;9.75;;;6.55;;
17812;SDS011;9030;50.792;8.320;2023-05-10T05:26:58;9.07;;;5.80;;
17812;SDS011;9030;50.792;8.320;2023-05-10T05:29:31;10.80;;;7.13;;
17812;SDS011;9030;50.792;8.320;2023-05-10T05:31:58;10.20;;;7.30;;
17812;SDS011;9030;50.792;8.320;2023-05-10T05:34:29;10.13;;;6.72;;
17812;SDS011;9030;50.792;8.320;2023-05-10T05:37:12;11.05;;;7.95;;
17812;SDS011;9030;50.792;8.320;2023-05-10T05:39:43;11.50;;;7.45;;
17812;SDS011;9030;50.792;8.320;2023-05-10T05:45:16;11.02;;;8.00;;
17812;SDS011;9030;50.792;8.320;2023-05-10T05:47:46;12.15;;;8.80;;
17812;SDS011;9030;50.792;8.320;2023-05-10T05:50:13;10.45;;;7.43;;
17812;SDS011;9030;50.792;8.320;2023-05-10T05:52:43;12.35;;;8.35;;
17812;SDS011;9030;50.792;8.320;2023-05-10T05:55:12;12.82;;;8.18;;
17812;SDS011;9030;50.792;8.320;2023-05-10T05:57:41;13.05;;;8.38;;
17812;SDS011;9030;50.792;8.320;2023-05-10T06:00:11;11.05;;;6.70;;
17812;SDS011;9030;50.792;8.320;2023-05-10T06:02:42;11.85;;;6.85;;
17812;SDS011;9030;50.792;8.320;2023-05-10T06:05:16;11.50;;;6.63;;
17812;SDS011;9030;50.792;8.320;2023-05-10T06:07:48;11.15;;;5.57;;
17812;SDS011;9030;50.792;8.320;2023-05-10T06:10:32;9.48;;;5.38;;
17812;SDS011;9030;50.792;8.320;2023-05-10T06:13:12;7.10;;;4.10;;
17812;SDS011;9030;50.792;8.320;2023-05-10T06:15:42;11.50;;;4.90;;
17812;SDS011;9030;50.792;8.320;2023-05-10T06:18:09;8.60;;;4.47;;
17812;SDS011;9030;50.792;8.320;2023-05-10T06:20:45;8.45;;;4.82;;
17812;SDS011;9030;50.792;8.320;2023-05-10T06:23:19;8.25;;;4.80;;
17812;SDS011;9030;50.792;8.320;2023-05-10T06:25:49;8.18;;;5.22;;
17812;SDS011;9030;50.792;8.320;2023-05-10T06:28:20;8.45;;;4.38;;
17812;SDS011;9030;50.792;8.320;2023-05-10T06:30:57;8.73;;;4.30;;
17812;SDS011;9030;50.792;8.320;2023-05-10T06:33:27;5.45;;;3.97;;
17812;SDS011;9030;50.792;8.320;2023-05-10T06:36:01;7.00;;;4.03;;
17812;SDS011;9030;50.792;8.320;2023-05-10T06:38:29;5.30;;;2.65;;
17812;SDS011;9030;50.792;8.320;2023-05-10T06:41:02;5.00;;;2.78;;
17812;SDS011;9030;50.792;8.320;2023-05-10T06:43:36;4.07;;;2.88;;
17812;SDS011;9030;50.792;8.320;2023-05-10T06:46:05;4.75;;;3.42;;
17812;SDS011;9030;50.792;8.320;2023-05-10T06:48:34;4.25;;;2.63;;
17812;SDS011;9030;50.792;8.320;2023-05-10T06:51:04;4.55;;;2.75;;
17812;SDS011;9030;50.792;8.320;2023-05-10T06:53:32;5.90;;;3.53;;
17812;SDS011;9030;50.792;8.320;2023-05-10T06:56:02;5.65;;;2.90;;
17812;SDS011;9030;50.792;8.320;2023-05-10T06:58:29;12.05;;;4.10;;
17812;SDS011;9030;50.792;8.320;2023-05-10T07:01:02;5.25;;;3.30;;
17812;SDS011;9030;50.792;8.320;2023-05-10T07:03:30;8.07;;;4.38;;
17812;SDS011;9030;50.792;8.320;2023-05-10T07:06:01;7.20;;;4.00;;
17812;SDS011;9030;50.792;8.320;2023-05-10T07:08:29;9.32;;;4.65;;
17812;SDS011;9030;50.792;8.320;2023-05-10T07:11:00;6.60;;;4.28;;
17812;SDS011;9030;50.792;8.320;2023-05-10T07:13:28;8.43;;;4.63;;
17812;SDS011;9030;50.792;8.320;2023-05-10T07:15:56;12.45;;;5.30;;
17812;SDS011;9030;50.792;8.320;2023-05-10T07:18:25;8.63;;;5.07;;
17812;SDS011;9030;50.792;8.320;2023-05-10T07:20:52;9.82;;;5.35;;
17812;SDS011;9030;50.792;8.320;2023-05-10T07:23:19;10.40;;;5.20;;
17812;SDS011;9030;50.792;8.320;2023-05-10T07:25:46;10.93;;;6.38;;
17812;SDS011;9030;50.792;8.320;2023-05-10T07:28:13;10.43;;;5.55;;
17812;SDS011;9030;50.792;8.320;2023-05-10T07:30:46;8.45;;;5.18;;
17812;SDS011;9030;50.792;8.320;2023-05-10T07:33:13;10.65;;;5.55;;
17812;SDS011;9030;50.792;8.320;2023-05-10T07:35:42;9.63;;;4.95;;
17812;SDS011;9030;50.792;8.320;2023-05-10T07:38:11;7.68;;;5.80;;
17812;SDS011;9030;50.792;8.320;2023-05-10T07:40:38;8.95;;;4.30;;
17812;SDS011;9030;50.792;8.320;2023-05-10T07:43:05;7.28;;;3.50;;
17812;SDS011;9030;50.792;8.320;2023-05-10T07:45:33;11.35;;;5.57;;
17812;SDS011;9030;50.792;8.320;2023-05-10T07:48:00;9.07;;;4.95;;
17812;SDS011;9030;50.792;8.320;2023-05-10T07:50:27;11.82;;;5.78;;
17812;SDS011;9030;50.792;8.320;2023-05-10T07:52:55;9.60;;;4.88;;
17812;SDS011;9030;50.792;8.320;2023-05-10T07:55:22;10.05;;;4.07;;
17812;SDS011;9030;50.792;8.320;2023-05-10T07:57:49;10.80;;;4.93;;
17812;SDS011;9030;50.792;8.320;2023-05-10T08:00:19;8.02;;;4.68;;
17812;SDS011;9030;50.792;8.320;2023-05-10T08:02:47;8.02;;;4.57;;
17812;SDS011;9030;50.792;8.320;2023-05-10T08:05:14;12.13;;;5.68;;
17812;SDS011;9030;50.792;8.320;2023-05-10T08:07:41;10.93;;;6.03;;
17812;SDS011;9030;50.792;8.320;2023-05-10T08:10:09;10.00;;;6.80;;
17812;SDS011;9030;50.792;8.320;2023-05-10T08:12:37;10.13;;;5.53;;
17812;SDS011;9030;50.792;8.320;2023-05-10T08:15:04;9.07;;;5.60;;
17812;SDS011;9030;50.792;8.320;2023-05-10T08:17:32;9.00;;;5.35;;
17812;SDS011;9030;50.792;8.320;2023-05-10T08:19:59;10.27;;;5.93;;
17812;SDS011;9030;50.792;8.320;2023-05-10T08:22:26;12.93;;;5.70;;
17812;SDS011;9030;50.792;8.320;2023-05-10T08:24:53;11.77;;;6.40;;
17812;SDS011;9030;50.792;8.320;2023-05-10T08:27:22;11.38;;;4.93;;
17812;SDS011;9030;50.792;8.320;2023-05-10T08:29:49;13.90;;;6.25;;
17812;SDS011;9030;50.792;8.320;2023-05-10T08:32:16;12.77;;;5.72;;
17812;SDS011;9030;50.792;8.320;2023-05-10T08:34:43;9.25;;;6.00;;
17812;SDS011;9030;50.792;8.320;2023-05-10T08:37:10;12.38;;;6.85;;
17812;SDS011;9030;50.792;8.320;2023-05-10T08:39:38;10.27;;;6.70;;
17812;SDS011;9030;50.792;8.320;2023-05-10T08:42:05;11.02;;;6.75;;
17812;SDS011;9030;50.792;8.320;2023-05-10T08:44:35;10.48;;;6.38;;
17812;SDS011;9030;50.792;8.320;2023-05-10T08:47:04;10.85;;;6.60;;
17812;SDS011;9030;50.792;8.320;2023-05-10T08:49:32;12.55;;;7.03;;
17812;SDS011;9030;50.792;8.320;2023-05-10T08:52:01;10.18;;;5.65;;
17812;SDS011;9030;50.792;8.320;2023-05-10T08:54:29;11.73;;;8.18;;
17812;SDS011;9030;50.792;8.320;2023-05-10T08:56:57;12.32;;;7.03;;
17812;SDS011;9030;50.792;8.320;2023-05-10T08:59:24;13.07;;;8.07;;
17812;SDS011;9030;50.792;8.320;2023-05-10T09:01:53;10.55;;;7.35;;
17812;SDS011;9030;50.792;8.320;2023-05-10T09:04:22;11.80;;;6.55;;
17812;SDS011;9030;50.792;8.320;2023-05-10T09:06:53;11.15;;;7.00;;
17812;SDS011;9030;50.792;8.320;2023-05-10T09:09:21;11.93;;;7.95;;
17812;SDS011;9030;50.792;8.320;2023-05-10T09:11:49;10.30;;;7.15;;
17812;SDS011;9030;50.792;8.320;2023-05-10T09:14:17;11.93;;;7.40;;
17812;SDS011;9030;50.792;8.320;2023-05-10T09:16:46;11.82;;;8.30;;
17812;SDS011;9030;50.792;8.320;2023-05-10T09:19:15;10.27;;;7.43;;
17812;SDS011;9030;50.792;8.320;2023-05-10T09:21:41;12.70;;;8.43;;
17812;SDS011;9030;50.792;8.320;2023-05-10T09:24:09;10.88;;;7.75;;
17812;SDS011;9030;50.792;8.320;2023-05-10T09:26:39;12.57;;;7.55;;
17812;SDS011;9030;50.792;8.320;2023-05-10T09:29:12;11.98;;;9.30;;
17812;SDS011;9030;50.792;8.320;2023-05-10T09:31:43;12.90;;;10.07;;
17812;SDS011;9030;50.792;8.320;2023-05-10T09:34:13;13.93;;;12.52;;
17812;SDS011;9030;50.792;8.320;2023-05-10T09:36:50;15.48;;;13.13;;
17812;SDS011;9030;50.792;8.320;2023-05-10T09:39:18;21.35;;;13.80;;
17812;SDS011;9030;50.792;8.320;2023-05-10T09:41:45;16.65;;;14.95;;
17812;SDS011;9030;50.792;8.320;2023-05-10T09:44:16;16.27;;;13.63;;
17812;SDS011;9030;50.792;8.320;2023-05-10T09:46:50;16.58;;;12.48;;
17812;SDS011;9030;50.792;8.320;2023-05-10T09:49:19;16.85;;;13.88;;
17812;SDS011;9030;50.792;8.320;2023-05-10T09:51:46;16.17;;;11.30;;
17812;SDS011;9030;50.792;8.320;2023-05-10T09:54:14;15.23;;;12.80;;
17812;SDS011;9030;50.792;8.320;2023-05-10T09:56:42;16.42;;;11.32;;
17812;SDS011;9030;50.792;8.320;2023-05-10T09:59:10;16.85;;;12.90;;
17812;SDS011;9030;50.792;8.320;2023-05-10T10:01:38;15.30;;;13.60;;
17812;SDS011;9030;50.792;8.320;2023-05-10T10:04:05;13.75;;;11.57;;
17812;SDS011;9030;50.792;8.320;2023-05-10T10:06:38;17.35;;;13.02;;
17812;SDS011;9030;50.792;8.320;2023-05-10T10:09:05;15.65;;;12.43;;
17812;SDS011;9030;50.792;8.320;2023-05-10T10:11:33;15.07;;;12.00;;
17812;SDS011;9030;50.792;8.320;2023-05-10T10:14:01;12.68;;;10.32;;
17812;SDS011;9030;50.792;8.320;2023-05-10T10:16:28;14.82;;;12.88;;
17812;SDS011;9030;50.792;8.320;2023-05-10T10:18:55;14.73;;;12.15;;
17812;SDS011;9030;50.792;8.320;2023-05-10T10:21:22;15.35;;;12.32;;
17812;SDS011;9030;50.792;8.320;2023-05-10T10:23:51;17.38;;;14.00;;
17812;SDS011;9030;50.792;8.320;2023-05-10T10:26:18;15.32;;;13.73;;
17812;SDS011;9030;50.792;8.320;2023-05-10T10:28:47;15.70;;;13.32;;
17812;SDS011;9030;50.792;8.320;2023-05-10T10:31:23;16.58;;;14.90;;
17812;SDS011;9030;50.792;8.320;2023-05-10T10:33:56;15.82;;;11.75;;
17812;SDS011;9030;50.792;8.320;2023-05-10T10:36:32;14.45;;;11.27;;
17812;SDS011;9030;50.792;8.320;2023-05-10T10:39:09;15.95;;;12.10;;
17812;SDS011;9030;50.792;8.320;2023-05-10T10:41:48;15.63;;;13.55;;
17812;SDS011;9030;50.792;8.320;2023-05-10T10:44:23;15.20;;;12.90;;
17812;SDS011;9030;50.792;8.320;2023-05-10T10:47:03;14.65;;;12.38;;
17812;SDS011;9030;50.792;8.320;2023-05-10T10:49:50;14.30;;;10.30;;
17812;SDS011;9030;50.792;8.320;2023-05-10T10:52:21;12.02;;;9.43;;
17812;SDS011;9030;50.792;8.320;2023-05-10T10:54:58;14.45;;;10.77;;
17812;SDS011;9030;50.792;8.320;2023-05-10T10:57:32;13.52;;;10.57;;
17812;SDS011;9030;50.792;8.320;2023-05-10T11:02:56;13.02;;;8.82;;
17812;SDS011;9030;50.792;8.320;2023-05-10T11:05:34;12.18;;;9.73;;
17812;SDS011;9030;50.792;8.320;2023-05-10T11:08:13;11.88;;;10.02;;
17812;SDS011;9030;50.792;8.320;2023-05-10T11:10:52;11.05;;;7.95;;
17812;SDS011;9030;50.792;8.320;2023-05-10T11:13:28;11.77;;;9.23;;
17812;SDS011;9030;50.792;8.320;2023-05-10T11:15:58;11.63;;;8.18;;
17812;SDS011;9030;50.792;8.320;2023-05-10T11:18:36;13.15;;;7.80;;
17812;SDS011;9030;50.792;8.320;2023-05-10T11:21:03;12.63;;;7.75;;
17812;SDS011;9030;50.792;8.320;2023-05-10T11:23:31;10.18;;;5.85;;
17812;SDS011;9030;50.792;8.320;2023-05-10T11:26:00;13.48;;;6.95;;
17812;SDS011;9030;50.792;8.320;2023-05-10T11:28:27;10.93;;;6.13;;
17812;SDS011;9030;50.792;8.320;2023-05-10T11:30:54;15.18;;;6.50;;
17812;SDS011;9030;50.792;8.320;2023-05-10T11:36:11;11.27;;;4.80;;
17812;SDS011;9030;50.792;8.320;2023-05-10T11:41:37;11.85;;;6.47;;
17812;SDS011;9030;50.792;8.320;2023-05-10T11:46:57;7.22;;;4.07;;
17812;SDS011;9030;50.792;8.320;2023-05-10T11:49:25;5.32;;;3.67;;
17812;SDS011;9030;50.792;8.320;2023-05-10T11:51:54;4.43;;;2.72;;
17812;SDS011;9030;50.792;8.320;2023-05-10T11:54:30;3.08;;;2.00;;
17812;SDS011;9030;50.792;8.320;2023-05-10T11:57:01;3.05;;;1.52;;
17812;SDS011;9030;50.792;8.320;2023-05-10T11:59:28;1.90;;;1.45;;
17812;SDS011;9030;50.792;8.320;2023-05-10T12:01:57;2.85;;;1.67;;
17812;SDS011;9030;50.792;8.320;2023-05-10T12:04:28;2.70;;;1.50;;
17812;SDS011;9030;50.792;8.320;2023-05-10T12:06:55;4.15;;;1.45;;
17812;SDS011;9030;50.792;8.320;2023-05-10T12:09:23;2.53;;;1.58;;
17812;SDS011;9030;50.792;8.320;2023-05-10T12:11:54;4.85;;;1.77;;
17812;SDS011;9030;50.792;8.320;2023-05-10T12:14:24;3.38;;;1.73;;
17812;SDS011;9030;50.792;8.320;2023-05-10T12:16:51;2.28;;;1.02;;
17812;SDS011;9030;50.792;8.320;2023-05-10T12:19:18;3.05;;;1.05;;
17812;SDS011;9030;50.792;8.320;2023-05-10T12:21:46;2.78;;;1.00;;
17812;SDS011;9030;50.792;8.320;2023-05-10T12:24:13;1.75;;;0.90;;
17812;SDS011;9030;50.792;8.320;2023-05-10T12:26:42;2.70;;;1.20;;
17812;SDS011;9030;50.792;8.320;2023-05-10T12:29:11;2.38;;;1.10;;
17812;SDS011;9030;50.792;8.320;2023-05-10T12:31:54;1.92;;;0.88;;
17812;SDS011;9030;50.792;8.320;2023-05-10T12:34:23;1.95;;;1.13;;
17812;SDS011;9030;50.792;8.320;2023-05-10T12:36:54;1.52;;;0.90;;
17812;SDS011;9030;50.792;8.320;2023-05-10T12:39:23;2.42;;;1.00;;
17812;SDS011;9030;50.792;8.320;2023-05-10T12:41:50;2.03;;;1.48;;
17812;SDS011;9030;50.792;8.320;2023-05-10T12:44:18;5.07;;;1.20;;
17812;SDS011;9030;50.792;8.320;2023-05-10T12:46:47;2.25;;;0.95;;
17812;SDS011;9030;50.792;8.320;2023-05-10T12:49:15;4.97;;;1.02;;
17812;SDS011;9030;50.792;8.320;2023-05-10T12:51:43;5.00;;;1.10;;
17812;SDS011;9030;50.792;8.320;2023-05-10T12:54:10;1.70;;;1.00;;
17812;SDS011;9030;50.792;8.320;2023-05-10T12:56:37;2.25;;;1.00;;
17812;SDS011;9030;50.792;8.320;2023-05-10T12:59:05;3.83;;;1.20;;
17812;SDS011;9030;50.792;8.320;2023-05-10T13:01:32;2.03;;;1.15;;
17812;SDS011;9030;50.792;8.320;2023-05-10T13:03:59;1.00;;;0.88;;
17812;SDS011;9030;50.792;8.320;2023-05-10T13:06:28;1.17;;;0.85;;
17812;SDS011;9030;50.792;8.320;2023-05-10T13:08:55;2.80;;;1.52;;
17812;SDS011;9030;50.792;8.320;2023-05-10T13:11:22;1.67;;;1.38;;
17812;SDS011;9030;50.792;8.320;2023-05-10T13:13:59;1.65;;;1.23;;
17812;SDS011;9030;50.792;8.320;2023-05-10T13:16:28;3.03;;;1.88;;
17812;SDS011;9030;50.792;8.320;2023-05-10T13:18:55;5.25;;;3.00;;
17812;SDS011;9030;50.792;8.320;2023-05-10T13:21:22;3.15;;;1.67;;
17812;SDS011;9030;50.792;8.320;2023-05-10T13:23:51;1.50;;;1.38;;
17812;SDS011;9030;50.792;8.320;2023-05-10T13:26:19;2.25;;;1.60;;
17812;SDS011;9030;50.792;8.320;2023-05-10T13:28:46;3.15;;;1.83;;
17812;SDS011;9030;50.792;8.320;2023-05-10T13:31:21;3.65;;;2.00;;
17812;SDS011;9030;50.792;8.320;2023-05-10T13:33:48;2.80;;;1.77;;
17812;SDS011;9030;50.792;8.320;2023-05-10T13:36:15;3.58;;;1.90;;
17812;SDS011;9030;50.792;8.320;2023-05-10T13:38:44;3.47;;;1.40;;
17812;SDS011;9030;50.792;8.320;2023-05-10T13:41:13;2.05;;;1.75;;
17812;SDS011;9030;50.792;8.320;2023-05-10T13:43:40;5.05;;;2.03;;
17812;SDS011;9030;50.792;8.320;2023-05-10T13:46:07;1.83;;;1.25;;
17812;SDS011;9030;50.792;8.320;2023-05-10T13:48:34;5.10;;;2.00;;
17812;SDS011;9030;50.792;8.320;2023-05-10T13:51:01;3.75;;;2.50;;
17812;SDS011;9030;50.792;8.320;2023-05-10T13:53:28;1.83;;;1.65;;
17812;SDS011;9030;50.792;8.320;2023-05-10T13:55:55;2.95;;;1.98;;
17812;SDS011;9030;50.792;8.320;2023-05-10T13:58:24;4.43;;;2.08;;
17812;SDS011;9030;50.792;8.320;2023-05-10T14:00:51;3.20;;;1.92;;
17812;SDS011;9030;50.792;8.320;2023-05-10T14:03:19;4.50;;;2.03;;
17812;SDS011;9030;50.792;8.320;2023-05-10T14:05:46;2.78;;;1.98;;
17812;SDS011;9030;50.792;8.320;2023-05-10T14:08:13;5.82;;;2.75;;
17812;SDS011;9030;50.792;8.320;2023-05-10T14:10:40;5.53;;;2.45;;
17812;SDS011;9030;50.792;8.320;2023-05-10T14:13:07;6.55;;;3.13;;
17812;SDS011;9030;50.792;8.320;2023-05-10T14:15:36;3.47;;;2.60;;
17812;SDS011;9030;50.792;8.320;2023-05-10T14:18:03;3.90;;;2.60;;
17812;SDS011;9030;50.792;8.320;2023-05-10T14:20:30;6.22;;;3.63;;
17812;SDS011;9030;50.792;8.320;2023-05-10T14:22:58;3.78;;;2.65;;
17812;SDS011;9030;50.792;8.320;2023-05-10T14:25:27;5.25;;;3.22;;
17812;SDS011;9030;50.792;8.320;2023-05-10T14:27:54;5.07;;;3.05;;
17812;SDS011;9030;50.792;8.320;2023-05-10T14:30:21;5.25;;;3.65;;
17812;SDS011;9030;50.792;8.320;2023-05-10T14:32:49;8.65;;;4.47;;
17812;SDS011;9030;50.792;8.320;2023-05-10T14:35:15;6.22;;;4.03;;
17812;SDS011;9030;50.792;8.320;2023-05-10T14:37:52;6.47;;;3.40;;
17812;SDS011;9030;50.792;8.320;2023-05-10T14:40:19;5.25;;;3.05;;
17812;SDS011;9030;50.792;8.320;2023-05-10T14:42:46;5.20;;;3.30;;
17812;SDS011;9030;50.792;8.320;2023-05-10T14:45:13;9.75;;;3.80;;
17812;SDS011;9030;50.792;8.320;2023-05-10T14:47:40;4.50;;;2.88;;
17812;SDS011;9030;50.792;8.320;2023-05-10T14:50:08;6.07;;;3.30;;
17812;SDS011;9030;50.792;8.320;2023-05-10T14:52:35;4.40;;;3.15;;
17812;SDS011;9030;50.792;8.320;2023-05-10T14:55:02;5.18;;;3.08;;
17812;SDS011;9030;50.792;8.320;2023-05-10T14:57:29;10.98;;;5.65;;
17812;SDS011;9030;50.792;8.320;2023-05-10T14:59:57;6.57;;;4.43;;
17812;SDS011;9030;50.792;8.320;2023-05-10T15:02:24;7.88;;;4.40;;
17812;SDS011;9030;50.792;8.320;2023-05-10T15:04:51;8.45;;;4.78;;
17812;SDS011;9030;50.792;8.320;2023-05-10T15:07:19;9.35;;;4.70;;
17812;SDS011;9030;50.792;8.320;2023-05-10T15:09:47;7.78;;;5.10;;
17812;SDS011;9030;50.792;8.320;2023-05-10T15:12:14;7.75;;;5.15;;
17812;SDS011;9030;50.792;8.320;2023-05-10T15:14:41;6.47;;;4.32;;
17812;SDS011;9030;50.792;8.320;2023-05-10T15:17:08;9.23;;;5.78;;
17812;SDS011;9030;50.792;8.320;2023-05-10T15:19:35;8.85;;;5.60;;
17812;SDS011;9030;50.792;8.320;2023-05-10T15:22:02;10.30;;;6.03;;
17812;SDS011;9030;50.792;8.320;2023-05-10T15:24:31;10.55;;;5.20;;
17812;SDS011;9030;50.792;8.320;2023-05-10T15:26:58;11.57;;;7.68;;
17812;SDS011;9030;50.792;8.320;2023-05-10T15:29:25;10.63;;;6.63;;
17812;SDS011;9030;50.792;8.320;2023-05-10T15:34:22;7.38;;;4.90;;
17812;SDS011;9030;50.792;8.320;2023-05-10T15:36:49;10.27;;;5.80;;
17812;SDS011;9030;50.792;8.320;2023-05-10T15:39:16;9.40;;;4.90;;
17812;SDS011;9030;50.792;8.320;2023-05-10T15:41:44;8.52;;;4.72;;
17812;SDS011;9030;50.792;8.320;2023-05-10T15:44:12;12.38;;;5.63;;
17812;SDS011;9030;50.792;8.320;2023-05-10T15:46:38;7.88;;;4.93;;
17812;SDS011;9030;50.792;8.320;2023-05-10T15:49:06;10.20;;;5.13;;
17812;SDS011;9030;50.792;8.320;2023-05-10T15:51:33;9.77;;;5.20;;
17812;SDS011;9030;50.792;8.320;2023-05-10T15:54:00;6.78;;;4.63;;
17812;SDS011;9030;50.792;8.320;2023-05-10T15:56:27;11.00;;;5.43;;
17812;SDS011;9030;50.792;8.320;2023-05-10T15:58:56;8.70;;;5.25;;
17812;SDS011;9030;50.792;8.320;2023-05-10T16:01:22;10.27;;;5.28;;
17812;SDS011;9030;50.792;8.320;2023-05-10T16:03:49;8.57;;;5.20;;
17812;SDS011;9030;50.792;8.320;2023-05-10T16:06:16;7.57;;;4.85;;
17812;SDS011;9030;50.792;8.320;2023-05-10T16:08:43;8.20;;;4.80;;
17812;SDS011;9030;50.792;8.320;2023-05-10T16:11:10;6.93;;;4.50;;
17812;SDS011;9030;50.792;8.320;2023-05-10T16:13:36;7.32;;;4.63;;
17812;SDS011;9030;50.792;8.320;2023-05-10T16:16:05;7.13;;;4.35;;
17812;SDS011;9030;50.792;8.320;2023-05-10T16:18:32;8.05;;;4.63;;
17812;SDS011;9030;50.792;8.320;2023-05-10T16:20:59;9.73;;;4.22;;
17812;SDS011;9030;50.792;8.320;2023-05-10T16:23:26;8.57;;;4.00;;
17812;SDS011;9030;50.792;8.320;2023-05-10T16:25:54;6.25;;;3.53;;
17812;SDS011;9030;50.792;8.320;2023-05-10T16:28:20;7.32;;;3.65;;
17812;SDS011;9030;50.792;8.320;2023-05-10T16:30:48;5.40;;;2.65;;
17812;SDS011;9030;50.792;8.320;2023-05-10T16:33:16;4.22;;;2.88;;
17812;SDS011;9030;50.792;8.320;2023-05-10T16:35:43;10.50;;;3.33;;
17812;SDS011;9030;50.792;8.320;2023-05-10T16:38:10;5.05;;;3.65;;
17812;SDS011;9030;50.792;8.320;2023-05-10T16:40:36;5.47;;;2.63;;
17812;SDS011;9030;50.792;8.320;2023-05-10T16:43:03;7.55;;;2.88;;
17812;SDS011;9030;50.792;8.320;2023-05-10T16:45:30;4.78;;;2.58;;
17812;SDS011;9030;50.792;8.320;2023-05-10T16:47:57;3.42;;;2.42;;